sensor_id;sensor_type;location;lat;lon;timestamp;pressure;altitude;pressure_sealevel;temperature;humidity
52651;BME280;38537;47.226;39.702;2022-07-10T00:00:55;99332.06;;;28.19;30.36
52651;BME280;38537;47.226;39.702;2022-07-10T00:03:22;99322.94;;;28.24;30.02
52651;BME280;38537;47.226;39.702;2022-07-10T00:05:50;99323.28;;;28.26;29.92
52651;BME280;38537;47.226;39.702;2022-07-10T00:08:17;99326.88;;;28.30;30.13
52651;BME280;38537;47.226;39.702;2022-07-10T00:10:45;99315.22;;;28.21;29.98
52651;BME280;38537;47.226;39.702;2022-07-10T00:13:12;99323.19;;;28.29;30.07
52651;BME280;38537;47.226;39.702;2022-07-10T00:15:39;99320.78;;;28.28;29.72
52651;BME280;38537;47.226;39.702;2022-07-10T00:18:07;99325.63;;;28.31;29.65
52651;BME280;38537;47.226;39.702;2022-07-10T00:20:34;99319.88;;;28.31;29.69
52651;BME280;38537;47.226;39.702;2022-07-10T00:23:02;99324.19;;;28.23;29.72
52651;BME280;38537;47.226;39.702;2022-07-10T00:25:29;99308.84;;;28.29;29.55
52651;BME280;38537;47.226;39.702;2022-07-10T00:27:57;99303.81;;;28.34;29.61
52651;BME280;38537;47.226;39.702;2022-07-10T00:30:25;99318.63;;;28.32;29.62
52651;BME280;38537;47.226;39.702;2022-07-10T00:32:52;99322.19;;;28.36;29.40
52651;BME280;38537;47.226;39.702;2022-07-10T00:35:19;99315.75;;;28.32;29.74
52651;BME280;38537;47.226;39.702;2022-07-10T00:37:46;99305.34;;;28.22;29.65
52651;BME280;38537;47.226;39.702;2022-07-10T00:40:14;99321.03;;;28.34;29.58
52651;BME280;38537;47.226;39.702;2022-07-10T00:42:42;99312.97;;;28.28;29.69
52651;BME280;38537;47.226;39.702;2022-07-10T00:45:09;99317.91;;;28.28;30.06
52651;BME280;38537;47.226;39.702;2022-07-10T00:47:38;99315.28;;;28.34;29.53
52651;BME280;38537;47.226;39.702;2022-07-10T00:50:06;99319.41;;;28.33;29.78
52651;BME280;38537;47.226;39.702;2022-07-10T00:52:35;99312.16;;;28.28;29.42
52651;BME280;38537;47.226;39.702;2022-07-10T00:55:07;99322.50;;;28.25;30.05
52651;BME280;38537;47.226;39.702;2022-07-10T00:57:36;99315.13;;;28.24;29.84
52651;BME280;38537;47.226;39.702;2022-07-10T01:00:05;99309.69;;;28.14;29.93
52651;BME280;38537;47.226;39.702;2022-07-10T01:02:32;99310.34;;;28.18;30.15
52651;BME280;38537;47.226;39.702;2022-07-10T01:05:00;99310.34;;;28.18;30.01
52651;BME280;38537;47.226;39.702;2022-07-10T01:07:29;99311.13;;;28.06;30.38
52651;BME280;38537;47.226;39.702;2022-07-10T01:09:58;99296.78;;;28.06;30.20
52651;BME280;38537;47.226;39.702;2022-07-10T01:12:27;99315.72;;;28.03;30.35
52651;BME280;38537;47.226;39.702;2022-07-10T01:14:55;99311.88;;;27.93;30.58
52651;BME280;38537;47.226;39.702;2022-07-10T01:17:22;99311.19;;;27.89;30.49
52651;BME280;38537;47.226;39.702;2022-07-10T01:19:51;99310.16;;;27.96;30.74
52651;BME280;38537;47.226;39.702;2022-07-10T01:22:18;99289.47;;;27.88;30.45
52651;BME280;38537;47.226;39.702;2022-07-10T01:24:45;99303.41;;;28.03;30.55
52651;BME280;38537;47.226;39.702;2022-07-10T01:27:13;99309.25;;;27.99;30.53
52651;BME280;38537;47.226;39.702;2022-07-10T01:29:40;99299.59;;;27.93;30.71
52651;BME280;38537;47.226;39.702;2022-07-10T01:32:08;99311.09;;;27.93;30.48
52651;BME280;38537;47.226;39.702;2022-07-10T01:34:35;99307.44;;;27.76;31.37
52651;BME280;38537;47.226;39.702;2022-07-10T01:37:03;99302.75;;;27.50;31.63
52651;BME280;38537;47.226;39.702;2022-07-10T01:39:30;99305.09;;;27.39;32.05
52651;BME280;38537;47.226;39.702;2022-07-10T01:41:57;99320.19;;;27.26;32.30
52651;BME280;38537;47.226;39.702;2022-07-10T01:44:24;99319.34;;;27.10;32.44
52651;BME280;38537;47.226;39.702;2022-07-10T01:46:52;99310.19;;;26.99;32.51
52651;BME280;38537;47.226;39.702;2022-07-10T01:49:20;99316.06;;;26.91;32.59
52651;BME280;38537;47.226;39.702;2022-07-10T01:51:47;99319.53;;;26.83;32.94
52651;BME280;38537;47.226;39.702;2022-07-10T01:54:15;99325.72;;;26.81;33.18
52651;BME280;38537;47.226;39.702;2022-07-10T01:56:42;99329.53;;;26.75;33.33
52651;BME280;38537;47.226;39.702;2022-07-10T01:59:10;99321.47;;;26.70;33.22
52651;BME280;38537;47.226;39.702;2022-07-10T02:01:37;99312.69;;;26.60;33.18
52651;BME280;38537;47.226;39.702;2022-07-10T02:04:04;99327.72;;;26.64;33.17
52651;BME280;38537;47.226;39.702;2022-07-10T02:06:50;99323.16;;;26.67;33.18
52651;BME280;38537;47.226;39.702;2022-07-10T02:09:17;99320.72;;;26.66;33.18
52651;BME280;38537;47.226;39.702;2022-07-10T02:11:46;99324.25;;;26.73;33.20
52651;BME280;38537;47.226;39.702;2022-07-10T02:14:13;99316.00;;;26.59;33.13
52651;BME280;38537;47.226;39.702;2022-07-10T02:16:40;99315.91;;;26.62;33.33
52651;BME280;38537;47.226;39.702;2022-07-10T02:19:08;99320.16;;;26.74;33.13
52651;BME280;38537;47.226;39.702;2022-07-10T02:21:35;99318.97;;;26.72;33.41
52651;BME280;38537;47.226;39.702;2022-07-10T02:24:02;99320.50;;;26.76;33.21
52651;BME280;38537;47.226;39.702;2022-07-10T02:26:30;99324.69;;;26.72;33.20
52651;BME280;38537;47.226;39.702;2022-07-10T02:28:57;99311.88;;;26.60;33.20
52651;BME280;38537;47.226;39.702;2022-07-10T02:31:24;99315.56;;;26.60;33.40
52651;BME280;38537;47.226;39.702;2022-07-10T02:33:51;99327.28;;;26.66;33.63
52651;BME280;38537;47.226;39.702;2022-07-10T02:36:19;99330.38;;;26.55;33.79
52651;BME280;38537;47.226;39.702;2022-07-10T02:38:46;99324.00;;;26.48;33.82
52651;BME280;38537;47.226;39.702;2022-07-10T02:41:13;99326.72;;;26.35;34.22
52651;BME280;38537;47.226;39.702;2022-07-10T02:43:41;99327.03;;;26.41;34.05
52651;BME280;38537;47.226;39.702;2022-07-10T02:46:08;99327.53;;;26.36;34.25
52651;BME280;38537;47.226;39.702;2022-07-10T02:48:36;99323.34;;;26.40;34.11
52651;BME280;38537;47.226;39.702;2022-07-10T02:51:04;99335.38;;;26.32;34.57
52651;BME280;38537;47.226;39.702;2022-07-10T02:53:31;99347.38;;;26.23;35.04
52651;BME280;38537;47.226;39.702;2022-07-10T02:55:59;99335.66;;;26.17;35.25
52651;BME280;38537;47.226;39.702;2022-07-10T02:58:26;99338.78;;;26.23;35.23
52651;BME280;38537;47.226;39.702;2022-07-10T03:00:53;99337.16;;;26.22;35.66
52651;BME280;38537;47.226;39.702;2022-07-10T03:03:21;99337.09;;;26.25;35.80
52651;BME280;38537;47.226;39.702;2022-07-10T03:05:48;99340.78;;;26.26;35.91
52651;BME280;38537;47.226;39.702;2022-07-10T03:08:15;99341.78;;;26.39;35.41
52651;BME280;38537;47.226;39.702;2022-07-10T03:10:42;99337.31;;;26.38;35.49
52651;BME280;38537;47.226;39.702;2022-07-10T03:13:10;99336.28;;;26.25;36.05
52651;BME280;38537;47.226;39.702;2022-07-10T03:15:37;99331.28;;;26.33;36.01
52651;BME280;38537;47.226;39.702;2022-07-10T03:18:04;99343.28;;;26.44;36.22
52651;BME280;38537;47.226;39.702;2022-07-10T03:20:31;99345.88;;;26.38;36.16
52651;BME280;38537;47.226;39.702;2022-07-10T03:22:59;99343.22;;;26.47;36.38
52651;BME280;38537;47.226;39.702;2022-07-10T03:25:26;99333.56;;;26.41;36.51
52651;BME280;38537;47.226;39.702;2022-07-10T03:27:53;99341.53;;;26.50;36.12
52651;BME280;38537;47.226;39.702;2022-07-10T03:30:20;99342.22;;;26.38;36.55
52651;BME280;38537;47.226;39.702;2022-07-10T03:32:48;99339.09;;;26.28;37.09
52651;BME280;38537;47.226;39.702;2022-07-10T03:35:15;99336.69;;;26.47;36.39
52651;BME280;38537;47.226;39.702;2022-07-10T03:37:42;99339.47;;;26.50;36.11
52651;BME280;38537;47.226;39.702;2022-07-10T03:40:10;99342.94;;;26.61;36.31
52651;BME280;38537;47.226;39.702;2022-07-10T03:42:37;99337.06;;;26.49;37.01
52651;BME280;38537;47.226;39.702;2022-07-10T03:45:05;99336.75;;;26.43;37.40
52651;BME280;38537;47.226;39.702;2022-07-10T03:47:32;99337.81;;;26.33;37.70
52651;BME280;38537;47.226;39.702;2022-07-10T03:50:00;99341.03;;;26.35;37.26
52651;BME280;38537;47.226;39.702;2022-07-10T03:52:27;99342.75;;;26.29;38.03
52651;BME280;38537;47.226;39.702;2022-07-10T03:54:54;99351.78;;;26.27;38.16
52651;BME280;38537;47.226;39.702;2022-07-10T03:57:21;99353.31;;;26.36;37.80
52651;BME280;38537;47.226;39.702;2022-07-10T04:00:08;99343.72;;;26.42;37.53
52651;BME280;38537;47.226;39.702;2022-07-10T04:02:39;99341.41;;;26.37;38.10
52651;BME280;38537;47.226;39.702;2022-07-10T04:05:10;99350.66;;;26.21;39.34
52651;BME280;38537;47.226;39.702;2022-07-10T04:07:37;99356.22;;;26.32;38.27
52651;BME280;38537;47.226;39.702;2022-07-10T04:10:05;99357.03;;;26.33;39.22
52651;BME280;38537;47.226;39.702;2022-07-10T04:12:32;99353.94;;;26.43;38.48
52651;BME280;38537;47.226;39.702;2022-07-10T04:15:00;99356.91;;;26.59;38.25
52651;BME280;38537;47.226;39.702;2022-07-10T04:17:29;99345.38;;;26.63;38.29
52651;BME280;38537;47.226;39.702;2022-07-10T04:19:56;99339.38;;;26.74;37.87
52651;BME280;38537;47.226;39.702;2022-07-10T04:22:23;99356.84;;;26.99;37.09
52651;BME280;38537;47.226;39.702;2022-07-10T04:24:50;99350.88;;;26.90;37.84
52651;BME280;38537;47.226;39.702;2022-07-10T04:27:18;99336.28;;;26.84;37.76
52651;BME280;38537;47.226;39.702;2022-07-10T04:29:45;99354.34;;;27.01;37.87
52651;BME280;38537;47.226;39.702;2022-07-10T04:32:14;99341.63;;;27.02;38.06
52651;BME280;38537;47.226;39.702;2022-07-10T04:34:42;99351.13;;;26.99;38.22
52651;BME280;38537;47.226;39.702;2022-07-10T04:37:09;99329.47;;;26.78;39.01
52651;BME280;38537;47.226;39.702;2022-07-10T04:39:37;99335.00;;;26.85;38.64
52651;BME280;38537;47.226;39.702;2022-07-10T04:42:08;99338.78;;;27.02;37.71
52651;BME280;38537;47.226;39.702;2022-07-10T04:44:36;99327.13;;;27.09;37.97
52651;BME280;38537;47.226;39.702;2022-07-10T04:47:04;99329.75;;;27.20;37.24
52651;BME280;38537;47.226;39.702;2022-07-10T04:49:33;99330.03;;;27.42;36.66
52651;BME280;38537;47.226;39.702;2022-07-10T04:52:01;99319.38;;;27.58;36.09
52651;BME280;38537;47.226;39.702;2022-07-10T04:54:28;99320.19;;;27.59;37.02
52651;BME280;38537;47.226;39.702;2022-07-10T04:56:56;99329.50;;;27.47;37.63
52651;BME280;38537;47.226;39.702;2022-07-10T04:59:23;99305.84;;;27.43;37.18
52651;BME280;38537;47.226;39.702;2022-07-10T05:01:50;99316.78;;;27.64;36.34
52651;BME280;38537;47.226;39.702;2022-07-10T05:04:18;99321.25;;;27.65;36.87
52651;BME280;38537;47.226;39.702;2022-07-10T05:06:45;99304.94;;;27.62;37.12
52651;BME280;38537;47.226;39.702;2022-07-10T05:09:12;99313.88;;;27.80;36.43
52651;BME280;38537;47.226;39.702;2022-07-10T05:11:39;99313.88;;;27.80;36.44
52651;BME280;38537;47.226;39.702;2022-07-10T05:14:07;99329.09;;;27.93;36.62
52651;BME280;38537;47.226;39.702;2022-07-10T05:16:34;99323.34;;;27.93;36.77
52651;BME280;38537;47.226;39.702;2022-07-10T05:19:02;99333.94;;;27.96;36.95
52651;BME280;38537;47.226;39.702;2022-07-10T05:21:30;99316.06;;;28.05;36.19
52651;BME280;38537;47.226;39.702;2022-07-10T05:23:57;99325.28;;;28.13;36.26
52651;BME280;38537;47.226;39.702;2022-07-10T05:26:24;99328.31;;;28.22;35.96
52651;BME280;38537;47.226;39.702;2022-07-10T05:28:52;99329.28;;;28.31;36.21
52651;BME280;38537;47.226;39.702;2022-07-10T05:31:19;99318.47;;;28.23;36.34
52651;BME280;38537;47.226;39.702;2022-07-10T05:33:46;99326.31;;;28.35;36.34
52651;BME280;38537;47.226;39.702;2022-07-10T05:36:13;99322.50;;;28.38;36.26
52651;BME280;38537;47.226;39.702;2022-07-10T05:38:40;99325.09;;;28.49;36.05
52651;BME280;38537;47.226;39.702;2022-07-10T05:41:08;99308.75;;;28.33;36.11
52651;BME280;38537;47.226;39.702;2022-07-10T05:43:36;99322.47;;;28.54;36.09
52651;BME280;38537;47.226;39.702;2022-07-10T05:46:03;99318.81;;;28.66;35.42
52651;BME280;38537;47.226;39.702;2022-07-10T05:48:31;99320.56;;;28.77;35.33
52651;BME280;38537;47.226;39.702;2022-07-10T05:50:59;99323.00;;;28.91;35.11
52651;BME280;38537;47.226;39.702;2022-07-10T05:53:46;99308.88;;;28.96;35.03
52651;BME280;38537;47.226;39.702;2022-07-10T05:56:13;99329.69;;;29.13;34.64
52651;BME280;38537;47.226;39.702;2022-07-10T05:58:40;99320.38;;;29.22;34.29
52651;BME280;38537;47.226;39.702;2022-07-10T06:01:08;99318.41;;;29.31;33.93
52651;BME280;38537;47.226;39.702;2022-07-10T06:03:36;99299.75;;;29.36;33.65
52651;BME280;38537;47.226;39.702;2022-07-10T06:06:03;99312.88;;;29.50;33.25
52651;BME280;38537;47.226;39.702;2022-07-10T06:08:31;99311.03;;;29.56;33.25
52651;BME280;38537;47.226;39.702;2022-07-10T06:10:58;99292.59;;;29.66;33.30
52651;BME280;38537;47.226;39.702;2022-07-10T06:13:25;99308.34;;;29.74;32.71
52651;BME280;38537;47.226;39.702;2022-07-10T06:15:52;99305.22;;;29.81;32.60
52651;BME280;38537;47.226;39.702;2022-07-10T06:18:19;99312.66;;;29.91;31.59
52651;BME280;38537;47.226;39.702;2022-07-10T06:20:47;99309.97;;;29.97;31.21
52651;BME280;38537;47.226;39.702;2022-07-10T06:23:14;99304.47;;;30.03;30.72
52651;BME280;38537;47.226;39.702;2022-07-10T06:25:41;99289.72;;;30.00;30.17
52651;BME280;38537;47.226;39.702;2022-07-10T06:28:09;99305.69;;;30.14;30.25
52651;BME280;38537;47.226;39.702;2022-07-10T06:30:36;99298.19;;;30.17;30.23
52651;BME280;38537;47.226;39.702;2022-07-10T06:33:04;99291.16;;;30.18;29.59
52651;BME280;38537;47.226;39.702;2022-07-10T06:35:31;99314.28;;;30.27;29.33
52651;BME280;38537;47.226;39.702;2022-07-10T06:37:58;99297.66;;;30.31;29.31
52651;BME280;38537;47.226;39.702;2022-07-10T06:40:26;99310.16;;;30.37;29.00
52651;BME280;38537;47.226;39.702;2022-07-10T06:42:55;99301.88;;;30.39;28.69
52651;BME280;38537;47.226;39.702;2022-07-10T06:45:24;99314.41;;;30.45;28.50
52651;BME280;38537;47.226;39.702;2022-07-10T06:47:51;99303.53;;;30.49;28.47
52651;BME280;38537;47.226;39.702;2022-07-10T06:50:28;99296.25;;;30.57;28.56
52651;BME280;38537;47.226;39.702;2022-07-10T06:52:58;99301.88;;;30.61;28.48
52651;BME280;38537;47.226;39.702;2022-07-10T06:55:26;99288.28;;;30.61;28.19
52651;BME280;38537;47.226;39.702;2022-07-10T06:57:54;99303.56;;;30.71;27.53
52651;BME280;38537;47.226;39.702;2022-07-10T07:00:22;99307.06;;;30.75;27.90
52651;BME280;38537;47.226;39.702;2022-07-10T07:02:50;99284.19;;;30.72;27.65
52651;BME280;38537;47.226;39.702;2022-07-10T07:05:17;99287.56;;;30.79;27.38
52651;BME280;38537;47.226;39.702;2022-07-10T07:07:45;99291.56;;;30.73;26.98
52651;BME280;38537;47.226;39.702;2022-07-10T07:10:12;99291.09;;;30.74;27.16
52651;BME280;38537;47.226;39.702;2022-07-10T07:12:39;99288.84;;;30.78;27.01
52651;BME280;38537;47.226;39.702;2022-07-10T07:15:07;99296.53;;;30.81;27.12
52651;BME280;38537;47.226;39.702;2022-07-10T07:17:41;99283.94;;;30.88;27.29
52651;BME280;38537;47.226;39.702;2022-07-10T07:20:25;99292.91;;;30.90;26.82
52651;BME280;38537;47.226;39.702;2022-07-10T07:23:11;99282.53;;;30.92;27.18
52651;BME280;38537;47.226;39.702;2022-07-10T07:25:40;99273.69;;;30.87;26.93
52651;BME280;38537;47.226;39.702;2022-07-10T07:28:09;99284.47;;;30.95;26.07
52651;BME280;38537;47.226;39.702;2022-07-10T07:30:37;99286.22;;;31.02;26.49
52651;BME280;38537;47.226;39.702;2022-07-10T07:33:04;99268.25;;;30.98;26.39
52651;BME280;38537;47.226;39.702;2022-07-10T07:35:32;99264.44;;;31.01;26.58
52651;BME280;38537;47.226;39.702;2022-07-10T07:38:01;99282.59;;;31.11;26.45
52651;BME280;38537;47.226;39.702;2022-07-10T07:40:28;99275.75;;;31.17;26.33
52651;BME280;38537;47.226;39.702;2022-07-10T07:42:55;99279.28;;;31.21;26.20
52651;BME280;38537;47.226;39.702;2022-07-10T07:45:23;99269.66;;;31.24;26.25
52651;BME280;38537;47.226;39.702;2022-07-10T07:47:55;99283.16;;;31.27;26.48
52651;BME280;38537;47.226;39.702;2022-07-10T07:50:27;99280.44;;;31.33;25.81
52651;BME280;38537;47.226;39.702;2022-07-10T07:52:55;99261.72;;;31.38;26.43
52651;BME280;38537;47.226;39.702;2022-07-10T07:55:24;99271.97;;;31.48;25.91
52651;BME280;38537;47.226;39.702;2022-07-10T07:57:53;99274.38;;;31.49;25.98
52651;BME280;38537;47.226;39.702;2022-07-10T08:00:22;99277.13;;;31.53;26.00
52651;BME280;38537;47.226;39.702;2022-07-10T08:02:51;99263.69;;;31.59;25.87
52651;BME280;38537;47.226;39.702;2022-07-10T08:05:19;99263.69;;;31.59;25.72
52651;BME280;38537;47.226;39.702;2022-07-10T08:07:50;99259.19;;;31.67;25.71
52651;BME280;38537;47.226;39.702;2022-07-10T08:10:20;99265.63;;;31.71;25.46
52651;BME280;38537;47.226;39.702;2022-07-10T08:12:48;99249.28;;;31.77;25.91
52651;BME280;38537;47.226;39.702;2022-07-10T08:15:17;99257.13;;;31.95;25.69
52651;BME280;38537;47.226;39.702;2022-07-10T08:17:52;99240.31;;;32.21;25.01
52651;BME280;38537;47.226;39.702;2022-07-10T08:20:20;99259.69;;;32.39;24.97
52651;BME280;38537;47.226;39.702;2022-07-10T08:22:48;99230.81;;;32.29;24.50
52651;BME280;38537;47.226;39.702;2022-07-10T08:25:25;99266.56;;;32.50;24.97
52651;BME280;38537;47.226;39.702;2022-07-10T08:27:53;99254.31;;;32.74;24.34
52651;BME280;38537;47.226;39.702;2022-07-10T08:30:20;99260.56;;;32.72;24.68
52651;BME280;38537;47.226;39.702;2022-07-10T08:32:48;99237.63;;;32.68;24.14
52651;BME280;38537;47.226;39.702;2022-07-10T08:35:16;99234.72;;;32.68;24.40
52651;BME280;38537;47.226;39.702;2022-07-10T08:37:44;99241.81;;;32.67;24.34
52651;BME280;38537;47.226;39.702;2022-07-10T08:40:14;99261.38;;;32.82;24.51
52651;BME280;38537;47.226;39.702;2022-07-10T08:42:43;99243.47;;;32.92;24.19
52651;BME280;38537;47.226;39.702;2022-07-10T08:45:14;99247.78;;;33.06;24.14
52651;BME280;38537;47.226;39.702;2022-07-10T08:47:42;99243.44;;;33.01;24.29
52651;BME280;38537;47.226;39.702;2022-07-10T08:50:24;99235.56;;;33.02;24.17
52651;BME280;38537;47.226;39.702;2022-07-10T08:53:07;99237.31;;;33.09;24.46
52651;BME280;38537;47.226;39.702;2022-07-10T08:55:36;99226.22;;;33.07;23.84
52651;BME280;38537;47.226;39.702;2022-07-10T08:58:04;99231.91;;;33.25;23.68
52651;BME280;38537;47.226;39.702;2022-07-10T09:00:31;99224.69;;;33.30;23.61
52651;BME280;38537;47.226;39.702;2022-07-10T09:02:59;99220.00;;;33.32;23.73
52651;BME280;38537;47.226;39.702;2022-07-10T09:05:27;99201.06;;;33.22;23.60
52651;BME280;38537;47.226;39.702;2022-07-10T09:07:55;99231.59;;;33.32;23.62
52651;BME280;38537;47.226;39.702;2022-07-10T09:10:27;99240.38;;;33.38;23.72
52651;BME280;38537;47.226;39.702;2022-07-10T09:13:04;99234.22;;;33.45;22.69
52651;BME280;38537;47.226;39.702;2022-07-10T09:15:32;99227.31;;;33.43;23.20
52651;BME280;38537;47.226;39.702;2022-07-10T09:18:02;99220.53;;;33.46;22.98
52651;BME280;38537;47.226;39.702;2022-07-10T09:20:37;99220.53;;;33.46;22.90
52651;BME280;38537;47.226;39.702;2022-07-10T09:23:23;99220.72;;;33.66;23.38
52651;BME280;38537;47.226;39.702;2022-07-10T09:25:53;99212.66;;;33.70;23.55
52651;BME280;38537;47.226;39.702;2022-07-10T09:28:22;99209.13;;;33.66;23.01
52651;BME280;38537;47.226;39.702;2022-07-10T09:30:49;99203.34;;;33.66;23.45
52651;BME280;38537;47.226;39.702;2022-07-10T09:33:23;99233.16;;;33.81;23.13
52651;BME280;38537;47.226;39.702;2022-07-10T09:36:09;99219.41;;;33.91;22.82
52651;BME280;38537;47.226;39.702;2022-07-10T09:43:44;99216.22;;;34.03;22.00
52651;BME280;38537;47.226;39.702;2022-07-10T09:46:13;99215.63;;;33.99;22.42
52651;BME280;38537;47.226;39.702;2022-07-10T09:48:40;99206.53;;;34.07;23.06
52651;BME280;38537;47.226;39.702;2022-07-10T09:51:11;99207.97;;;34.26;22.67
52651;BME280;38537;47.226;39.702;2022-07-10T09:53:41;99206.91;;;34.38;22.62
52651;BME280;38537;47.226;39.702;2022-07-10T09:56:09;99210.91;;;34.55;22.50
52651;BME280;38537;47.226;39.702;2022-07-10T09:58:38;99214.19;;;34.63;22.47
52651;BME280;38537;47.226;39.702;2022-07-10T10:01:07;99214.38;;;34.74;22.44
52651;BME280;38537;47.226;39.702;2022-07-10T10:03:37;99180.47;;;34.65;22.61
52651;BME280;38537;47.226;39.702;2022-07-10T10:06:11;99206.47;;;34.75;22.04
52651;BME280;38537;47.226;39.702;2022-07-10T10:11:13;99199.75;;;34.68;21.50
52651;BME280;38537;47.226;39.702;2022-07-10T10:13:42;99198.25;;;34.73;21.53
52651;BME280;38537;47.226;39.702;2022-07-10T10:16:10;99204.28;;;34.84;22.14
52651;BME280;38537;47.226;39.702;2022-07-10T10:18:38;99192.59;;;34.79;21.74
52651;BME280;38537;47.226;39.702;2022-07-10T10:21:27;99190.06;;;34.86;21.97
52651;BME280;38537;47.226;39.702;2022-07-10T10:23:55;99188.75;;;34.87;22.09
52651;BME280;38537;47.226;39.702;2022-07-10T10:26:23;99188.53;;;34.91;22.07
52651;BME280;38537;47.226;39.702;2022-07-10T10:28:56;99182.75;;;34.91;21.50
52651;BME280;38537;47.226;39.702;2022-07-10T10:31:24;99176.75;;;34.94;21.77
52651;BME280;38537;47.226;39.702;2022-07-10T10:33:56;99191.94;;;35.04;22.05
52651;BME280;38537;47.226;39.702;2022-07-10T10:39:13;99191.03;;;34.98;21.82
52651;BME280;38537;47.226;39.702;2022-07-10T10:41:51;99193.94;;;34.98;21.56
52651;BME280;38537;47.226;39.702;2022-07-10T10:44:26;99191.84;;;34.98;21.66
52651;BME280;38537;47.226;39.702;2022-07-10T10:47:00;99189.88;;;35.10;21.80
52651;BME280;38537;47.226;39.702;2022-07-10T10:49:53;99180.97;;;35.28;21.66
52651;BME280;38537;47.226;39.702;2022-07-10T10:52:23;99177.47;;;35.45;21.08
52651;BME280;38537;47.226;39.702;2022-07-10T11:00:07;99169.69;;;35.77;20.77
52651;BME280;38537;47.226;39.702;2022-07-10T11:02:37;99170.50;;;35.77;20.62
52651;BME280;38537;47.226;39.702;2022-07-10T11:08:00;99180.72;;;35.93;20.62
52651;BME280;38537;47.226;39.702;2022-07-10T11:10:34;99184.69;;;35.95;20.12
52651;BME280;38537;47.226;39.702;2022-07-10T11:15:41;99176.88;;;35.81;20.04
52651;BME280;38537;47.226;39.702;2022-07-10T11:18:11;99178.59;;;35.73;20.07
52651;BME280;38537;47.226;39.702;2022-07-10T11:26:21;99166.56;;;35.80;20.67
52651;BME280;38537;47.226;39.702;2022-07-10T11:31:23;99160.16;;;35.76;20.51
52651;BME280;38537;47.226;39.702;2022-07-10T11:33:53;99164.31;;;35.69;20.67
52651;BME280;38537;47.226;39.702;2022-07-10T11:36:22;99165.91;;;35.70;20.68
52651;BME280;38537;47.226;39.702;2022-07-10T11:39:01;99154.81;;;35.69;20.66
52651;BME280;38537;47.226;39.702;2022-07-10T11:41:30;99157.84;;;35.80;20.32
52651;BME280;38537;47.226;39.702;2022-07-10T11:44:02;99153.28;;;35.94;20.08
52651;BME280;38537;47.226;39.702;2022-07-10T11:46:32;99145.16;;;36.03;20.15
52651;BME280;38537;47.226;39.702;2022-07-10T11:49:04;99149.78;;;36.16;20.10
52651;BME280;38537;47.226;39.702;2022-07-10T11:51:39;99144.22;;;36.18;20.26
52651;BME280;38537;47.226;39.702;2022-07-10T11:54:13;99154.69;;;36.30;20.28
52651;BME280;38537;47.226;39.702;2022-07-10T11:56:48;99142.28;;;36.29;20.16
52651;BME280;38537;47.226;39.702;2022-07-10T11:59:16;99137.53;;;36.32;20.13
52651;BME280;38537;47.226;39.702;2022-07-10T12:01:48;99136.22;;;36.33;20.06
52651;BME280;38537;47.226;39.702;2022-07-10T12:04:18;99134.13;;;36.39;19.99
52651;BME280;38537;47.226;39.702;2022-07-10T12:06:47;99134.44;;;36.41;19.70
52651;BME280;38537;47.226;39.702;2022-07-10T12:09:16;99139.97;;;36.39;19.94
52651;BME280;38537;47.226;39.702;2022-07-10T12:12:02;99130.72;;;36.40;19.71
52651;BME280;38537;47.226;39.702;2022-07-10T12:14:30;99127.88;;;36.46;19.81
52651;BME280;38537;47.226;39.702;2022-07-10T12:16:59;99135.78;;;36.46;19.87
52651;BME280;38537;47.226;39.702;2022-07-10T12:19:36;99122.00;;;36.40;20.05
52651;BME280;38537;47.226;39.702;2022-07-10T12:22:07;99137.34;;;36.41;19.86
52651;BME280;38537;47.226;39.702;2022-07-10T12:24:35;99129.91;;;36.40;19.99
52651;BME280;38537;47.226;39.702;2022-07-10T12:27:02;99131.28;;;36.45;20.02
52651;BME280;38537;47.226;39.702;2022-07-10T12:29:30;99119.88;;;36.41;19.89
52651;BME280;38537;47.226;39.702;2022-07-10T12:32:01;99117.03;;;36.47;19.92
52651;BME280;38537;47.226;39.702;2022-07-10T12:34:36;99127.59;;;36.44;19.72
52651;BME280;38537;47.226;39.702;2022-07-10T12:37:08;99119.34;;;36.37;19.42
52651;BME280;38537;47.226;39.702;2022-07-10T12:39:45;99114.28;;;36.32;20.11
52651;BME280;38537;47.226;39.702;2022-07-10T12:42:12;99121.97;;;36.35;20.18
52651;BME280;38537;47.226;39.702;2022-07-10T12:44:43;99119.34;;;36.37;19.87
52651;BME280;38537;47.226;39.702;2022-07-10T12:47:16;99125.16;;;36.37;20.00
52651;BME280;38537;47.226;39.702;2022-07-10T12:50:04;99127.59;;;36.44;19.98
52651;BME280;38537;47.226;39.702;2022-07-10T12:52:38;99122.50;;;36.39;19.67
52651;BME280;38537;47.226;39.702;2022-07-10T12:55:16;99119.81;;;36.30;19.88
52651;BME280;38537;47.226;39.702;2022-07-10T12:57:59;99112.41;;;36.29;19.99
52651;BME280;38537;47.226;39.702;2022-07-10T13:00:33;99130.63;;;36.29;20.40
52651;BME280;38537;47.226;39.702;2022-07-10T13:03:07;99117.66;;;36.25;20.41
52651;BME280;38537;47.226;39.702;2022-07-10T13:05:42;99115.81;;;36.27;20.33
52651;BME280;38537;47.226;39.702;2022-07-10T13:08:17;99123.75;;;36.27;20.39
52651;BME280;38537;47.226;39.702;2022-07-10T13:13:20;99108.59;;;36.23;20.42
52651;BME280;38537;47.226;39.702;2022-07-10T13:15:48;99111.50;;;36.23;20.38
52651;BME280;38537;47.226;39.702;2022-07-10T13:18:25;99118.44;;;36.25;20.05
52651;BME280;38537;47.226;39.702;2022-07-10T13:20:57;99123.47;;;36.25;19.98
52651;BME280;38537;47.226;39.702;2022-07-10T13:23:29;99119.94;;;36.21;19.96
52651;BME280;38537;47.226;39.702;2022-07-10T13:25:56;99105.09;;;36.13;20.20
52651;BME280;38537;47.226;39.702;2022-07-10T13:28:26;99108.53;;;36.12;20.38
52651;BME280;38537;47.226;39.702;2022-07-10T13:30:54;99117.75;;;36.10;20.44
52651;BME280;38537;47.226;39.702;2022-07-10T13:33:22;99121.75;;;36.13;20.30